createdAt,value
2023-07-21T00:01:10.720Z,13.70
2023-07-21T00:03:43.108Z,13.60
2023-07-21T00:06:10.736Z,13.60
2023-07-21T00:08:39.328Z,13.50
2023-07-21T00:11:06.809Z,13.50
2023-07-21T00:13:36.357Z,13.60
2023-07-21T00:16:05.305Z,13.60
2023-07-21T00:18:33.382Z,13.60
2023-07-21T00:21:00.873Z,13.60
2023-07-21T00:23:33.015Z,13.60
2023-07-21T00:26:01.835Z,13.60
2023-07-21T00:28:28.715Z,13.60
2023-07-21T00:30:55.751Z,13.60
2023-07-21T00:33:23.356Z,13.60
2023-07-21T00:35:50.067Z,13.60
2023-07-21T00:38:17.013Z,13.60
2023-07-21T00:40:45.037Z,13.60
2023-07-21T00:43:17.822Z,13.60
2023-07-21T00:45:45.584Z,13.50
2023-07-21T00:48:14.319Z,13.50
2023-07-21T00:50:52.744Z,13.50
2023-07-21T00:53:21.032Z,13.50
2023-07-21T00:55:49.125Z,13.60
2023-07-21T00:58:18.066Z,13.50
2023-07-21T01:00:45.116Z,13.60
2023-07-21T01:03:13.119Z,13.60
2023-07-21T01:05:45.084Z,13.60
2023-07-21T01:08:13.195Z,13.70
2023-07-21T01:10:41.161Z,13.70
2023-07-21T01:13:11.400Z,13.70
2023-07-21T01:15:44.497Z,13.70
2023-07-21T01:18:13.703Z,13.70
2023-07-21T01:20:40.853Z,13.70
2023-07-21T01:23:43.368Z,13.70
2023-07-21T01:26:12.696Z,13.60
2023-07-21T01:28:42.151Z,13.60
2023-07-21T01:31:09.765Z,13.60
2023-07-21T01:33:38.210Z,13.60
2023-07-21T01:36:06.417Z,13.60
2023-07-21T01:38:34.636Z,13.60
2023-07-21T01:41:02.710Z,13.60
2023-07-21T01:43:29.475Z,13.60
2023-07-21T01:45:56.422Z,13.60
2023-07-21T01:48:25.349Z,13.60
2023-07-21T01:50:54.245Z,13.50
2023-07-21T01:53:23.870Z,13.50
2023-07-21T01:56:13.374Z,13.50
2023-07-21T01:58:43.839Z,13.50
2023-07-21T02:01:12.244Z,13.50
2023-07-21T02:03:40.322Z,13.50
2023-07-21T02:06:15.085Z,13.50
2023-07-21T02:08:42.203Z,13.50
2023-07-21T02:11:09.071Z,13.50
2023-07-21T02:13:35.996Z,13.50
2023-07-21T02:16:02.870Z,13.50
2023-07-21T02:18:29.796Z,13.50
2023-07-21T02:20:56.446Z,13.50
2023-07-21T02:23:23.205Z,13.50
2023-07-21T02:25:50.255Z,13.40
2023-07-21T02:28:16.951Z,13.50
2023-07-21T02:30:43.623Z,13.50
2023-07-21T02:33:11.896Z,13.40
2023-07-21T02:35:38.587Z,13.40
2023-07-21T02:38:06.615Z,13.30
2023-07-21T02:40:33.300Z,13.30
2023-07-21T02:43:00.059Z,13.30
2023-07-21T02:45:26.956Z,13.30
2023-07-21T02:47:53.926Z,13.30
2023-07-21T02:50:22.009Z,13.30
2023-07-21T02:52:48.668Z,13.30
2023-07-21T02:55:15.707Z,13.20
2023-07-21T02:57:42.725Z,13.20
2023-07-21T03:00:13.076Z,13.20
2023-07-21T03:02:42.832Z,13.20
2023-07-21T03:05:11.210Z,13.20
2023-07-21T03:07:40.345Z,13.20
2023-07-21T03:10:12.610Z,13.20
2023-07-21T03:12:39.433Z,13.20
2023-07-21T03:15:07.331Z,13.20
2023-07-21T03:17:34.327Z,13.20
2023-07-21T03:20:01.049Z,13.20
2023-07-21T03:22:28.003Z,13.20
2023-07-21T03:24:57.661Z,13.20
2023-07-21T03:27:24.572Z,13.10
2023-07-21T03:29:54.624Z,13.10
2023-07-21T03:32:21.344Z,13.10
2023-07-21T03:34:52.186Z,13.00
2023-07-21T03:37:19.115Z,13.00
2023-07-21T03:39:46.097Z,13.00
2023-07-21T03:42:13.773Z,13.00
2023-07-21T03:44:40.702Z,13.00
2023-07-21T03:47:07.830Z,13.00
2023-07-21T03:49:36.543Z,13.00
2023-07-21T03:52:03.286Z,13.00
2023-07-21T03:54:30.629Z,13.00
2023-07-21T03:56:57.296Z,13.00
2023-07-21T03:59:23.976Z,13.00
2023-07-21T04:01:50.928Z,13.00
2023-07-21T04:04:18.018Z,13.00
2023-07-21T04:06:44.738Z,13.00
2023-07-21T04:09:14.565Z,13.00
2023-07-21T04:11:42.145Z,13.00
2023-07-21T04:14:09.288Z,13.10
2023-07-21T04:16:35.987Z,13.10
2023-07-21T04:19:02.912Z,13.10
2023-07-21T04:21:29.935Z,13.10
2023-07-21T04:23:56.619Z,13.20
2023-07-21T04:26:23.781Z,13.20
2023-07-21T04:28:50.976Z,13.30
2023-07-21T04:31:22.948Z,13.30
2023-07-21T04:33:50.335Z,13.40
2023-07-21T04:36:17.009Z,13.60
2023-07-21T04:38:43.918Z,13.70
2023-07-21T04:41:13.333Z,13.80
2023-07-21T04:43:40.022Z,13.90
2023-07-21T04:46:07.018Z,14.00
2023-07-21T04:48:33.685Z,14.10
2023-07-21T04:51:00.559Z,14.40
2023-07-21T04:53:27.300Z,14.50
2023-07-21T04:55:58.240Z,14.70
2023-07-21T04:58:25.761Z,14.90
2023-07-21T05:00:53.154Z,15.40
2023-07-21T05:03:19.910Z,15.90
2023-07-21T05:05:47.277Z,16.30
2023-07-21T05:08:14.607Z,16.70
2023-07-21T05:10:41.287Z,17.40
2023-07-21T05:13:09.214Z,18.20
2023-07-21T05:15:36.918Z,18.70
2023-07-21T05:18:04.290Z,18.90
2023-07-21T05:20:31.314Z,18.90
2023-07-21T05:22:58.704Z,18.90
2023-07-21T05:25:25.479Z,18.70
2023-07-21T05:27:52.139Z,18.60
2023-07-21T05:30:18.929Z,18.40
2023-07-21T05:32:45.925Z,18.30
2023-07-21T05:35:15.063Z,18.10
2023-07-21T05:37:41.833Z,18.20
2023-07-21T05:40:10.818Z,18.40
2023-07-21T05:42:37.456Z,18.50
2023-07-21T05:45:06.733Z,18.70
2023-07-21T05:47:34.759Z,18.80
2023-07-21T05:50:02.314Z,18.90
2023-07-21T05:52:29.958Z,19.20
2023-07-21T05:54:56.807Z,19.50
2023-07-21T05:57:23.918Z,20.00
2023-07-21T05:59:50.886Z,20.20
2023-07-21T06:02:17.530Z,20.30
2023-07-21T06:04:47.481Z,20.40
2023-07-21T06:07:16.322Z,20.30
2023-07-21T06:09:43.009Z,20.10
2023-07-21T06:12:09.925Z,20.00
2023-07-21T06:14:36.841Z,20.00
2023-07-21T06:17:03.656Z,20.10
2023-07-21T06:19:32.658Z,20.20
2023-07-21T06:21:59.567Z,20.40
2023-07-21T06:24:26.527Z,20.80
2023-07-21T06:26:53.248Z,21.30
2023-07-21T06:29:20.244Z,21.80
2023-07-21T06:31:47.172Z,22.10
2023-07-21T06:34:13.859Z,22.10
2023-07-21T06:36:40.798Z,22.10
2023-07-21T06:39:07.867Z,22.40
2023-07-21T06:41:34.565Z,23.00
2023-07-21T06:44:01.209Z,23.60
2023-07-21T06:46:28.332Z,24.10
2023-07-21T06:48:55.074Z,24.60
2023-07-21T06:51:21.783Z,25.90
2023-07-21T06:54:09.384Z,26.90
2023-07-21T06:56:41.143Z,27.70
2023-07-21T06:59:07.867Z,27.50
2023-07-21T07:01:34.550Z,27.20
2023-07-21T07:04:01.707Z,26.80
2023-07-21T07:06:31.332Z,26.60
2023-07-21T07:08:57.975Z,26.40
2023-07-21T07:11:25.855Z,25.90
2023-07-21T07:13:53.008Z,25.80
2023-07-21T07:16:19.678Z,26.00
2023-07-21T07:18:46.479Z,26.90
2023-07-21T07:21:14.130Z,27.70
2023-07-21T07:23:40.818Z,27.90
2023-07-21T07:26:07.889Z,27.20
2023-07-21T07:28:34.822Z,26.80
2023-07-21T07:31:05.521Z,26.30
2023-07-21T07:33:35.375Z,26.00
2023-07-21T07:36:02.086Z,27.10
2023-07-21T07:38:29.963Z,28.00
2023-07-21T07:41:07.154Z,28.10
2023-07-21T07:43:34.366Z,28.10
2023-07-21T07:46:01.921Z,28.70
2023-07-21T07:48:29.031Z,29.00
2023-07-21T07:50:56.253Z,28.90
2023-07-21T07:53:23.286Z,28.50
2023-07-21T07:55:50.332Z,28.40
2023-07-21T07:58:17.076Z,28.80
2023-07-21T08:00:44.624Z,29.00
2023-07-21T08:03:11.684Z,28.80
2023-07-21T08:05:40.655Z,29.30
2023-07-21T08:08:14.154Z,30.20
2023-07-21T08:10:42.480Z,30.40
2023-07-21T08:13:09.666Z,27.90
2023-07-21T08:15:36.879Z,26.70
2023-07-21T08:18:04.356Z,27.00
2023-07-21T08:20:31.516Z,28.00
2023-07-21T08:22:58.200Z,29.20
2023-07-21T08:25:27.007Z,30.20
2023-07-21T08:27:54.435Z,29.40
2023-07-21T08:30:21.347Z,29.40
2023-07-21T08:32:48.132Z,30.10
2023-07-21T08:35:14.846Z,32.00
2023-07-21T08:37:41.757Z,31.80
2023-07-21T08:40:09.794Z,31.50
2023-07-21T08:42:37.956Z,32.10
2023-07-21T08:45:06.516Z,32.80
2023-07-21T08:47:34.519Z,33.40
2023-07-21T08:50:05.138Z,34.10
2023-07-21T08:52:33.191Z,35.00
2023-07-21T08:55:03.341Z,34.90
2023-07-21T08:57:30.221Z,35.70
2023-07-21T08:59:57.308Z,35.70
2023-07-21T09:02:41.394Z,35.00
2023-07-21T09:05:08.951Z,33.70
2023-07-21T09:07:36.570Z,33.60
2023-07-21T09:10:03.543Z,33.30
2023-07-21T09:12:37.251Z,32.70
2023-07-21T09:15:12.021Z,31.20
2023-07-21T09:17:43.259Z,29.80
2023-07-21T09:20:23.417Z,28.50
2023-07-21T09:22:57.214Z,27.50
2023-07-21T09:25:23.937Z,26.70
2023-07-21T09:27:59.127Z,26.10
2023-07-21T09:30:26.030Z,25.80
2023-07-21T09:32:55.292Z,25.60
2023-07-21T09:35:30.315Z,25.70
2023-07-21T09:37:59.294Z,25.90
2023-07-21T09:40:29.748Z,25.70
2023-07-21T09:42:56.929Z,25.20
2023-07-21T09:45:26.252Z,24.80
2023-07-21T09:47:56.418Z,24.80
2023-07-21T09:50:23.324Z,24.80
2023-07-21T09:52:57.170Z,24.90
2023-07-21T09:55:25.312Z,24.80
2023-07-21T09:58:32.863Z,24.60
2023-07-21T10:01:11.054Z,24.40
2023-07-21T10:03:38.676Z,24.10
2023-07-21T10:06:07.820Z,24.20
2023-07-21T10:08:37.353Z,24.30
2023-07-21T10:11:07.400Z,24.80
2023-07-21T10:13:34.577Z,25.10
2023-07-21T10:16:06.837Z,25.60
2023-07-21T10:18:33.610Z,26.00
2023-07-21T10:21:00.618Z,26.70
2023-07-21T10:23:32.299Z,27.70
2023-07-21T10:26:08.596Z,27.50
2023-07-21T10:28:39.816Z,27.00
2023-07-21T10:31:25.193Z,26.50
2023-07-21T10:34:08.052Z,25.70
2023-07-21T10:36:57.945Z,25.10
2023-07-21T10:39:27.498Z,24.50
2023-07-21T10:42:16.337Z,24.00
2023-07-21T10:44:47.115Z,23.60
2023-07-21T10:47:19.900Z,23.40
2023-07-21T10:49:49.456Z,23.30
2023-07-21T10:52:16.631Z,23.40
2023-07-21T10:54:43.713Z,23.60
2023-07-21T10:57:10.560Z,24.10
2023-07-21T10:59:37.914Z,24.90
2023-07-21T11:02:08.660Z,25.90
2023-07-21T11:04:36.904Z,26.70
2023-07-21T11:07:04.634Z,27.50
2023-07-21T11:09:36.219Z,28.00
2023-07-21T11:12:04.780Z,28.20
2023-07-21T11:14:32.053Z,28.00
2023-07-21T11:17:04.180Z,27.40
2023-07-21T11:19:33.299Z,26.70
2023-07-21T11:22:01.029Z,26.20
2023-07-21T11:24:30.850Z,25.90
2023-07-21T11:27:08.846Z,26.00
2023-07-21T11:29:42.656Z,25.90
2023-07-21T11:32:24.616Z,26.30
2023-07-21T11:35:04.016Z,26.60
2023-07-21T11:37:46.060Z,26.90
2023-07-21T11:40:19.884Z,26.90
2023-07-21T11:42:49.279Z,26.90
2023-07-21T11:45:35.867Z,27.40
2023-07-21T11:48:11.937Z,27.70
2023-07-21T11:50:38.903Z,27.90
2023-07-21T11:53:06.983Z,27.60
2023-07-21T11:55:33.767Z,27.70
2023-07-21T11:58:00.512Z,28.40
2023-07-21T12:00:28.826Z,28.90
2023-07-21T12:02:59.051Z,29.00
2023-07-21T12:05:26.193Z,28.80
2023-07-21T12:07:53.766Z,28.80
2023-07-21T12:10:21.192Z,28.30
2023-07-21T12:12:47.886Z,27.80
2023-07-21T12:15:15.306Z,27.30
2023-07-21T12:17:42.045Z,27.10
2023-07-21T12:20:13.244Z,26.90
2023-07-21T12:22:41.606Z,27.00
2023-07-21T12:25:10.306Z,27.00
2023-07-21T12:27:38.046Z,27.00
2023-07-21T12:30:10.715Z,27.30
2023-07-21T12:32:37.965Z,27.40
2023-07-21T12:35:06.219Z,27.30
2023-07-21T12:37:33.932Z,27.40
2023-07-21T12:40:01.601Z,28.10
2023-07-21T12:42:30.994Z,28.60
2023-07-21T12:44:57.898Z,28.40
2023-07-21T12:47:24.794Z,28.10
2023-07-21T12:49:51.551Z,28.00
2023-07-21T12:52:18.299Z,27.70
2023-07-21T12:54:47.030Z,27.70
2023-07-21T12:57:13.939Z,27.60
2023-07-21T12:59:40.739Z,27.40
2023-07-21T13:02:07.569Z,27.80
2023-07-21T13:04:34.575Z,28.30
2023-07-21T13:07:02.193Z,27.90
2023-07-21T13:09:29.038Z,28.40
2023-07-21T13:11:57.360Z,29.40
2023-07-21T13:14:24.220Z,29.90
2023-07-21T13:16:51.244Z,29.20
2023-07-21T13:19:18.037Z,28.10
2023-07-21T13:21:45.499Z,26.90
2023-07-21T13:24:12.658Z,26.10
2023-07-21T13:26:39.524Z,25.50
2023-07-21T13:29:06.537Z,24.90
2023-07-21T13:31:33.298Z,24.30
2023-07-21T13:34:00.019Z,24.30
2023-07-21T13:36:27.130Z,24.50
2023-07-21T13:38:54.124Z,25.00
2023-07-21T13:41:20.829Z,25.20
2023-07-21T13:43:47.777Z,25.40
2023-07-21T13:46:14.526Z,25.80
2023-07-21T13:48:41.472Z,25.90
2023-07-21T13:51:08.495Z,26.00
2023-07-21T13:53:35.168Z,26.00
2023-07-21T13:56:05.605Z,25.80
2023-07-21T13:58:33.459Z,25.50
2023-07-21T14:01:00.423Z,25.10
2023-07-21T14:03:30.256Z,24.90
2023-07-21T14:05:57.281Z,24.70
2023-07-21T14:08:25.698Z,24.60
2023-07-21T14:10:52.692Z,24.40
2023-07-21T14:13:19.370Z,24.10
2023-07-21T14:15:46.667Z,23.80
2023-07-21T14:18:13.822Z,23.80
2023-07-21T14:20:40.987Z,23.90
2023-07-21T14:23:08.631Z,23.90
2023-07-21T14:25:35.736Z,24.00
2023-07-21T14:28:02.477Z,24.10
2023-07-21T14:30:30.843Z,24.30
2023-07-21T14:32:57.918Z,24.20
2023-07-21T14:35:25.265Z,24.10
2023-07-21T14:37:52.185Z,23.90
2023-07-21T14:40:19.006Z,23.80
2023-07-21T14:42:46.179Z,23.60
2023-07-21T14:45:16.617Z,23.50
2023-07-21T14:47:43.920Z,23.30
2023-07-21T14:50:12.428Z,23.20
2023-07-21T14:52:39.307Z,23.10
2023-07-21T14:55:10.129Z,23.10
2023-07-21T14:57:37.014Z,23.20
2023-07-21T15:00:06.331Z,23.20
2023-07-21T15:02:33.153Z,23.10
2023-07-21T15:05:00.329Z,23.00
2023-07-21T15:07:27.085Z,22.80
2023-07-21T15:09:53.726Z,22.80
2023-07-21T15:12:21.888Z,22.70
2023-07-21T15:14:48.663Z,22.70
2023-07-21T15:17:15.516Z,22.60
2023-07-21T15:19:42.495Z,22.70
2023-07-21T15:22:09.213Z,22.80
2023-07-21T15:24:36.188Z,23.00
2023-07-21T15:27:04.111Z,23.00
2023-07-21T15:29:31.089Z,23.00
2023-07-21T15:31:57.971Z,22.90
2023-07-21T15:34:24.979Z,22.90
2023-07-21T15:36:51.911Z,22.90
2023-07-21T15:39:18.563Z,23.00
2023-07-21T15:41:45.263Z,23.00
2023-07-21T15:44:11.937Z,23.10
2023-07-21T15:46:38.705Z,23.30
2023-07-21T15:49:05.745Z,23.30
2023-07-21T15:51:32.512Z,23.30
2023-07-21T15:54:11.511Z,23.40
2023-07-21T15:56:43.816Z,23.40
2023-07-21T15:59:10.759Z,23.40
2023-07-21T16:01:37.475Z,23.30
2023-07-21T16:04:04.524Z,23.10
2023-07-21T16:06:31.888Z,23.00
2023-07-21T16:08:58.551Z,23.00
2023-07-21T16:11:25.551Z,22.90
2023-07-21T16:13:52.880Z,22.80
2023-07-21T16:16:21.055Z,22.70
2023-07-21T16:18:49.909Z,22.50
2023-07-21T16:21:17.781Z,22.30
2023-07-21T16:23:44.550Z,22.00
2023-07-21T16:26:15.625Z,21.90
2023-07-21T16:28:42.710Z,21.70
2023-07-21T16:31:09.609Z,21.60
2023-07-21T16:33:36.349Z,21.40
2023-07-21T16:36:05.053Z,21.30
2023-07-21T16:38:34.717Z,21.20
2023-07-21T16:41:04.766Z,21.10
2023-07-21T16:43:31.502Z,20.90
2023-07-21T16:45:58.611Z,20.40
2023-07-21T16:48:27.724Z,19.60
2023-07-21T16:50:54.741Z,19.00
2023-07-21T16:53:24.582Z,18.50
2023-07-21T16:55:51.564Z,18.20
2023-07-21T16:58:19.372Z,18.00
2023-07-21T17:00:47.190Z,17.90
2023-07-21T17:03:16.605Z,17.80
2023-07-21T17:05:43.422Z,17.70
2023-07-21T17:08:10.471Z,17.60
2023-07-21T17:10:37.428Z,17.50
2023-07-21T17:13:05.264Z,17.50
2023-07-21T17:15:32.278Z,17.50
2023-07-21T17:18:01.132Z,17.40
2023-07-21T17:20:28.218Z,17.40
2023-07-21T17:22:54.922Z,17.40
2023-07-21T17:25:21.926Z,17.30
2023-07-21T17:27:49.369Z,17.30
2023-07-21T17:30:16.300Z,17.40
2023-07-21T17:32:43.161Z,17.40
2023-07-21T17:35:10.687Z,17.50
2023-07-21T17:37:39.557Z,17.50
2023-07-21T17:40:12.464Z,17.60
2023-07-21T17:42:40.256Z,17.70
2023-07-21T17:45:07.884Z,17.80
2023-07-21T17:47:34.685Z,17.90
2023-07-21T17:50:01.439Z,17.90
2023-07-21T17:52:28.118Z,17.90
2023-07-21T17:55:05.564Z,17.80
2023-07-21T17:57:32.671Z,17.80
2023-07-21T17:59:59.581Z,17.80
2023-07-21T18:02:26.340Z,17.80
2023-07-21T18:04:53.828Z,17.70
2023-07-21T18:07:26.794Z,17.60
2023-07-21T18:09:53.590Z,17.50
2023-07-21T18:12:20.319Z,17.40
2023-07-21T18:14:47.226Z,17.40
2023-07-21T18:17:13.867Z,17.40
2023-07-21T18:19:40.572Z,17.30
2023-07-21T18:22:07.538Z,17.20
2023-07-21T18:24:34.206Z,17.20
2023-07-21T18:27:00.875Z,17.10
2023-07-21T18:29:27.885Z,17.00
2023-07-21T18:31:54.893Z,16.90
2023-07-21T18:34:21.602Z,16.90
2023-07-21T18:36:48.259Z,16.70
2023-07-21T18:39:15.312Z,16.70
2023-07-21T18:41:41.991Z,16.60
2023-07-21T18:44:08.680Z,16.50
2023-07-21T18:46:35.389Z,16.40
2023-07-21T18:49:02.094Z,16.30
2023-07-21T18:51:29.080Z,16.30
2023-07-21T18:53:58.913Z,16.20
2023-07-21T18:56:25.620Z,16.10
2023-07-21T18:58:52.872Z,16.10
2023-07-21T19:01:22.357Z,16.00
2023-07-21T19:03:49.436Z,16.00
2023-07-21T19:06:16.145Z,15.90
2023-07-21T19:08:42.844Z,15.90
2023-07-21T19:11:09.855Z,15.80
2023-07-21T19:13:36.580Z,15.70
2023-07-21T19:16:07.327Z,15.60
2023-07-21T19:18:36.283Z,15.60
2023-07-21T19:21:07.455Z,15.60
2023-07-21T19:23:39.282Z,15.50
2023-07-21T19:26:07.568Z,15.40
2023-07-21T19:28:34.907Z,15.40
2023-07-21T19:31:01.781Z,15.30
2023-07-21T19:33:28.877Z,15.30
2023-07-21T19:35:56.874Z,15.30
2023-07-21T19:38:26.903Z,15.20
2023-07-21T19:40:54.504Z,15.10
2023-07-21T19:43:23.687Z,15.00
2023-07-21T19:45:51.861Z,14.90
2023-07-21T19:48:18.598Z,14.90
2023-07-21T19:50:45.303Z,14.80
2023-07-21T19:53:12.077Z,14.70
2023-07-21T19:55:39.591Z,14.70
2023-07-21T19:58:09.813Z,14.60
2023-07-21T20:00:41.301Z,14.50
2023-07-21T20:03:08.206Z,14.50
2023-07-21T20:05:37.064Z,14.50
2023-07-21T20:08:04.239Z,14.40
2023-07-21T20:10:30.899Z,14.40
2023-07-21T20:12:57.932Z,14.30
2023-07-21T20:15:24.929Z,14.20
2023-07-21T20:17:52.036Z,14.20
2023-07-21T20:20:18.777Z,14.10
2023-07-21T20:22:51.972Z,14.10
2023-07-21T20:25:18.639Z,14.10
2023-07-21T20:27:45.303Z,14.00
2023-07-21T20:30:12.740Z,14.00
2023-07-21T20:32:43.571Z,13.90
2023-07-21T20:35:10.650Z,13.80
2023-07-21T20:37:37.617Z,13.70
2023-07-21T20:40:04.665Z,13.60
2023-07-21T20:42:31.648Z,13.50
2023-07-21T20:44:58.401Z,13.50
2023-07-21T20:47:25.091Z,13.40
2023-07-21T20:49:52.005Z,13.40
2023-07-21T20:52:18.789Z,13.40
2023-07-21T20:54:45.426Z,13.30
2023-07-21T20:57:12.400Z,13.30
2023-07-21T20:59:43.592Z,13.30
2023-07-21T21:02:15.393Z,13.30
2023-07-21T21:04:42.413Z,13.20
2023-07-21T21:07:09.221Z,13.20
2023-07-21T21:09:36.184Z,13.20
2023-07-21T21:12:02.999Z,13.10
2023-07-21T21:14:29.950Z,13.10
2023-07-21T21:16:56.964Z,13.20
2023-07-21T21:19:23.746Z,13.20
2023-07-21T21:21:50.467Z,13.30
2023-07-21T21:24:19.104Z,13.30
2023-07-21T21:26:46.190Z,13.30
2023-07-21T21:29:13.192Z,13.40
2023-07-21T21:31:39.959Z,13.30
2023-07-21T21:34:06.753Z,13.40
2023-07-21T21:36:33.758Z,13.40
2023-07-21T21:39:00.532Z,13.40
2023-07-21T21:41:27.570Z,13.40
2023-07-21T21:43:54.359Z,13.30
2023-07-21T21:46:24.429Z,13.30
2023-07-21T21:48:51.554Z,13.30
2023-07-21T21:51:18.764Z,13.30
2023-07-21T21:53:45.518Z,13.30
2023-07-21T21:56:12.572Z,13.20
2023-07-21T21:58:39.316Z,13.10
2023-07-21T22:01:06.145Z,13.00
2023-07-21T22:03:35.416Z,13.00
2023-07-21T22:06:02.483Z,13.00
2023-07-21T22:08:29.384Z,13.00
2023-07-21T22:10:56.178Z,12.90
2023-07-21T22:13:22.964Z,12.90
2023-07-21T22:15:49.792Z,13.00
2023-07-21T22:18:16.780Z,13.00
2023-07-21T22:20:43.612Z,12.90
2023-07-21T22:23:10.426Z,12.90
2023-07-21T22:25:37.213Z,12.90
2023-07-21T22:28:04.113Z,12.90
2023-07-21T22:30:32.396Z,12.80
2023-07-21T22:33:00.310Z,12.80
2023-07-21T22:35:28.688Z,12.80
2023-07-21T22:37:56.433Z,12.80
2023-07-21T22:40:23.488Z,12.70
2023-07-21T22:42:50.764Z,12.80
2023-07-21T22:45:17.581Z,12.70
2023-07-21T22:47:44.950Z,12.70
2023-07-21T22:50:12.641Z,12.70
2023-07-21T22:52:40.696Z,12.60
2023-07-21T22:55:08.994Z,12.60
2023-07-21T22:57:37.367Z,12.70
2023-07-21T23:00:13.013Z,12.70
2023-07-21T23:02:39.864Z,12.80
2023-07-21T23:05:06.989Z,12.80
2023-07-21T23:07:34.042Z,12.80
2023-07-21T23:10:00.807Z,12.80
2023-07-21T23:12:27.569Z,12.90
2023-07-21T23:14:59.204Z,12.90
2023-07-21T23:17:28.006Z,13.00
2023-07-21T23:19:54.811Z,13.10
2023-07-21T23:22:21.865Z,13.20
2023-07-21T23:24:48.968Z,13.30
2023-07-21T23:27:15.867Z,13.40
2023-07-21T23:29:42.634Z,13.40
2023-07-21T23:32:10.021Z,13.50
2023-07-21T23:34:36.931Z,13.50
2023-07-21T23:37:04.580Z,13.60
2023-07-21T23:39:32.716Z,13.70
2023-07-21T23:41:59.574Z,13.70
2023-07-21T23:44:26.688Z,13.80
2023-07-21T23:46:53.549Z,13.80
2023-07-21T23:49:20.605Z,13.80
2023-07-21T23:51:47.361Z,13.80
2023-07-21T23:54:15.330Z,13.80
2023-07-21T23:56:42.371Z,13.80
2023-07-21T23:59:09.322Z,13.80
